Time;durP1;ratioP1;P1;durP2;ratioP2;P2;SDS_P1;SDS_P2;PMS_P1;PMS_P2;Temp;Humidity;BMP_temperature;BMP_pressure;BME280_temperature;BME280_humidity;BME280_pressure;Samples;Min_cycle;Max_cycle;Signal;HPM_P1;HPM_P2
2020/12/08 00:01:39;;;;;;;4.15;3.00;;;23.80;30.60;;;;;;5033938;28;20487;-48
2020/12/08 00:04:05;;;;;;;3.25;2.83;;;23.80;30.60;;;;;;5016607;28;20045;-47
2020/12/08 00:06:32;;;;;;;4.07;3.08;;;23.80;30.70;;;;;;5033673;28;20025;-45
2020/12/08 00:08:59;;;;;;;4.25;3.25;;;23.80;30.70;;;;;;5034129;28;20405;-49
2020/12/08 00:11:26;;;;;;;3.58;2.80;;;23.70;30.70;;;;;;5032838;28;20029;-50
2020/12/08 00:13:53;;;;;;;3.58;2.90;;;23.80;30.70;;;;;;5026634;28;20041;-45
2020/12/08 00:16:19;;;;;;;3.63;3.00;;;23.70;30.70;;;;;;5015799;28;20090;-45
2020/12/08 00:18:46;;;;;;;3.13;2.83;;;23.70;30.70;;;;;;5033810;28;20029;-46
2020/12/08 00:21:13;;;;;;;3.25;2.85;;;23.60;30.70;;;;;;5033633;28;20026;-45
2020/12/08 00:23:39;;;;;;;3.80;2.97;;;23.60;30.80;;;;;;5034109;28;20033;-46
2020/12/08 00:26:06;;;;;;;3.90;2.70;;;23.60;30.80;;;;;;5015701;28;20045;-45
2020/12/08 00:28:34;;;;;;;3.80;2.92;;;23.60;30.90;;;;;;5033694;28;20088;-47
2020/12/08 00:31:00;;;;;;;2.72;2.45;;;23.60;30.90;;;;;;5033807;28;20056;-44
2020/12/08 00:33:27;;;;;;;3.17;2.67;;;23.60;30.90;;;;;;5033663;28;20040;-44
2020/12/08 00:35:53;;;;;;;4.07;2.95;;;23.50;30.90;;;;;;5033307;28;20038;-48
2020/12/08 00:38:20;;;;;;;2.55;2.30;;;23.50;30.90;;;;;;5034096;28;20021;-44
2020/12/08 00:40:47;;;;;;;2.75;2.28;;;23.50;31.00;;;;;;5015640;28;20029;-45
2020/12/08 00:43:13;;;;;;;3.22;2.53;;;23.50;31.00;;;;;;5033743;28;20033;-48
2020/12/08 00:45:40;;;;;;;2.58;2.20;;;23.50;31.10;;;;;;5033397;28;20037;-45
2020/12/08 00:48:07;;;;;;;3.13;2.38;;;23.50;31.10;;;;;;5016204;28;20037;-45
2020/12/08 00:50:34;;;;;;;3.95;2.70;;;23.50;31.20;;;;;;5033358;28;20029;-47
2020/12/08 00:53:01;;;;;;;2.92;2.60;;;23.50;31.20;;;;;;5031982;28;20056;-45
2020/12/08 00:55:27;;;;;;;3.95;2.97;;;23.50;31.20;;;;;;5015561;28;20080;-44
2020/12/08 00:57:54;;;;;;;2.35;2.13;;;23.50;31.20;;;;;;5015272;28;20488;-47
2020/12/08 01:00:22;;;;;;;4.10;2.72;;;23.50;31.30;;;;;;5015802;28;20038;-49
2020/12/08 01:02:49;;;;;;;2.88;2.58;;;23.40;31.20;;;;;;5015797;28;20060;-46
2020/12/08 01:05:17;;;;;;;3.22;2.40;;;23.40;31.20;;;;;;5033619;28;20041;-48
2020/12/08 01:07:46;;;;;;;3.17;2.58;;;23.40;31.20;;;;;;5015718;28;20034;-46
2020/12/08 01:10:22;;;;;;;3.45;2.70;;;23.40;31.30;;;;;;5015077;28;20084;-46
2020/12/08 01:12:48;;;;;;;2.90;2.30;;;23.40;31.30;;;;;;5015426;28;20030;-46
2020/12/08 01:15:16;;;;;;;3.63;2.60;;;23.40;31.30;;;;;;5015790;28;20037;-45
2020/12/08 01:17:44;;;;;;;3.30;2.65;;;23.30;31.30;;;;;;5015447;28;20040;-44
2020/12/08 01:20:11;;;;;;;3.30;2.67;;;23.30;31.40;;;;;;5015691;28;20361;-46
2020/12/08 01:22:39;;;;;;;2.65;2.42;;;23.30;31.40;;;;;;5015400;28;20037;-45
2020/12/08 01:25:07;;;;;;;2.80;2.47;;;23.30;31.50;;;;;;5032849;28;20102;-46
2020/12/08 01:27:36;;;;;;;3.85;2.47;;;23.30;31.50;;;;;;5033276;28;20022;-45
2020/12/08 01:30:06;;;;;;;3.30;2.50;;;23.30;31.50;;;;;;5019708;28;20045;-44
2020/12/08 01:32:37;;;;;;;2.80;2.30;;;23.30;31.50;;;;;;5019217;28;20065;-45
2020/12/08 01:35:04;;;;;;;3.35;2.40;;;23.20;31.50;;;;;;5019179;28;20071;-46
2020/12/08 01:37:32;;;;;;;2.60;2.30;;;23.20;31.50;;;;;;5013654;28;20453;-44
2020/12/08 01:39:59;;;;;;;2.47;2.10;;;23.20;31.50;;;;;;5018597;28;20048;-45
2020/12/08 01:42:29;;;;;;;3.58;2.20;;;23.20;31.50;;;;;;5018778;28;20029;-45
2020/12/08 01:44:58;;;;;;;2.72;2.13;;;23.20;31.50;;;;;;5018579;28;20180;-46
2020/12/08 01:47:25;;;;;;;3.38;2.35;;;23.20;31.50;;;;;;5018723;28;20041;-47
2020/12/08 01:49:52;;;;;;;5.35;2.53;;;23.10;32.10;;;;;;5018631;28;20199;-44
2020/12/08 01:52:20;;;;;;;3.92;2.47;;;23.10;31.50;;;;;;5019025;28;20044;-44
2020/12/08 01:54:53;;;;;;;2.72;2.30;;;23.10;31.60;;;;;;5018300;28;20025;-45
2020/12/08 01:57:22;;;;;;;3.13;2.65;;;23.10;31.60;;;;;;5017826;28;20026;-46
2020/12/08 01:59:54;;;;;;;2.58;2.10;;;23.10;31.60;;;;;;5018563;28;20036;-46
2020/12/08 02:02:25;;;;;;;2.83;2.35;;;23.10;31.70;;;;;;5018934;28;20032;-45
2020/12/08 02:04:55;;;;;;;2.83;2.08;;;23.10;31.70;;;;;;5018321;28;20400;-46
2020/12/08 02:07:23;;;;;;;2.25;2.03;;;23.10;31.70;;;;;;5018483;28;20030;-45
2020/12/08 02:09:51;;;;;;;2.45;1.88;;;23.00;31.70;;;;;;5017780;28;20119;-44
2020/12/08 02:12:25;;;;;;;2.40;1.95;;;23.10;31.80;;;;;;5018707;28;20066;-46
2020/12/08 02:14:52;;;;;;;2.17;1.98;;;23.00;31.70;;;;;;5035794;28;20025;-46
2020/12/08 02:17:20;;;;;;;3.58;2.33;;;23.00;31.70;;;;;;5018315;28;20030;-47
2020/12/08 02:19:48;;;;;;;2.80;2.15;;;23.00;31.80;;;;;;5035892;28;20053;-45
2020/12/08 02:22:17;;;;;;;4.13;2.30;;;23.00;31.70;;;;;;5018205;28;20041;-45
2020/12/08 02:24:44;;;;;;;2.88;2.15;;;23.00;31.80;;;;;;5035695;28;20030;-47
2020/12/08 02:27:11;;;;;;;2.22;1.83;;;23.00;31.80;;;;;;5035821;28;20397;-45
2020/12/08 02:29:38;;;;;;;3.10;2.03;;;23.00;31.80;;;;;;4999885;28;20054;-46
2020/12/08 02:32:06;;;;;;;2.15;1.80;;;22.90;31.70;;;;;;5016061;28;20033;-45
2020/12/08 02:34:33;;;;;;;2.50;2.00;;;22.90;31.70;;;;;;4998598;28;20033;-46
2020/12/08 02:37:00;;;;;;;2.47;2.00;;;22.90;31.70;;;;;;5015644;28;20034;-46
2020/12/08 02:39:36;;;;;;;2.58;1.92;;;22.90;31.80;;;;;;5014823;28;20030;-45
2020/12/08 02:42:03;;;;;;;2.20;1.90;;;22.90;31.80;;;;;;5015907;28;20053;-47
2020/12/08 02:44:29;;;;;;;2.35;1.55;;;22.90;31.80;;;;;;4998185;28;20042;-44
2020/12/08 02:46:57;;;;;;;3.20;2.13;;;22.90;31.80;;;;;;4998121;28;20124;-44
2020/12/08 02:49:25;;;;;;;2.50;1.85;;;22.80;31.70;;;;;;4998008;28;20030;-46
2020/12/08 02:52:01;;;;;;;3.03;1.90;;;22.80;31.70;;;;;;5015206;28;20040;-45
2020/12/08 02:54:33;;;;;;;2.65;1.95;;;22.80;31.70;;;;;;4997803;28;20453;-44
2020/12/08 02:57:02;;;;;;;2.20;2.00;;;22.80;31.70;;;;;;4997763;28;20107;-48
2020/12/08 02:59:36;;;;;;;2.40;1.70;;;22.80;31.70;;;;;;4997873;28;20034;-49
2020/12/08 03:02:03;;;;;;;2.35;1.80;;;22.80;31.70;;;;;;4997874;28;20713;-46
2020/12/08 03:04:36;;;;;;;1.98;1.67;;;22.80;31.70;;;;;;4997405;28;20038;-45
2020/12/08 03:07:06;;;;;;;2.42;1.85;;;22.80;31.70;;;;;;4996560;28;20335;-46
2020/12/08 03:09:34;;;;;;;4.22;2.42;;;22.70;31.70;;;;;;4997505;28;20116;-48
2020/12/08 03:12:00;;;;;;;1.90;1.65;;;22.80;31.70;;;;;;4997523;28;20468;-46
2020/12/08 03:14:27;;;;;;;2.63;1.90;;;22.70;31.70;;;;;;4997663;28;20033;-48
2020/12/08 03:16:57;;;;;;;2.33;1.70;;;22.70;31.60;;;;;;4997278;28;20098;-46
2020/12/08 03:19:26;;;;;;;3.15;2.33;;;22.70;31.60;;;;;;4997699;28;20369;-45
2020/12/08 03:21:53;;;;;;;2.88;1.85;;;22.70;31.70;;;;;;4996842;28;20049;-46
2020/12/08 03:24:36;;;;;;;3.28;2.13;;;22.70;31.70;;;;;;4997321;28;20053;-45
2020/12/08 03:27:03;;;;;;;2.50;1.70;;;22.70;31.70;;;;;;4997118;28;20471;-45
2020/12/08 03:29:29;;;;;;;3.03;1.80;;;22.70;31.80;;;;;;4997022;28;20135;-47
2020/12/08 03:31:59;;;;;;;2.30;1.85;;;22.70;31.80;;;;;;4997545;28;20369;-46
2020/12/08 03:34:26;;;;;;;2.20;1.90;;;22.70;31.80;;;;;;4996843;28;20033;-46
2020/12/08 03:36:53;;;;;;;3.17;1.90;;;22.60;31.80;;;;;;5014376;28;20394;-46
2020/12/08 03:39:20;;;;;;;2.50;1.67;;;22.60;31.80;;;;;;4997291;28;20516;-44
2020/12/08 03:41:46;;;;;;;2.65;1.83;;;22.60;31.80;;;;;;4996675;28;20037;-46
2020/12/08 03:44:12;;;;;;;2.22;1.75;;;22.60;31.80;;;;;;4997381;28;20045;-47
2020/12/08 03:46:41;;;;;;;2.08;1.40;;;22.60;31.80;;;;;;4996806;28;20026;-44
2020/12/08 03:49:08;;;;;;;2.20;1.70;;;22.60;31.80;;;;;;4996993;28;20025;-47
2020/12/08 03:51:38;;;;;;;2.20;1.80;;;22.60;31.80;;;;;;4996012;28;20057;-45
2020/12/08 03:54:11;;;;;;;2.57;1.73;;;22.50;31.80;;;;;;4997237;28;20064;-44
2020/12/08 03:56:47;;;;;;;2.30;1.80;;;22.60;31.80;;;;;;4996552;28;20120;-44
2020/12/08 03:59:18;;;;;;;2.25;1.77;;;22.60;31.80;;;;;;4997101;28;20030;-46
2020/12/08 04:01:53;;;;;;;2.72;2.05;;;22.50;31.80;;;;;;4996767;28;20022;-44
2020/12/08 04:04:22;;;;;;;2.55;1.98;;;22.50;31.70;;;;;;4996532;28;21180;-48
2020/12/08 04:06:50;;;;;;;1.70;1.60;;;22.50;31.80;;;;;;4981888;28;20030;-44
2020/12/08 04:09:16;;;;;;;2.13;1.70;;;22.50;31.80;;;;;;4996902;28;20117;-44
2020/12/08 04:11:43;;;;;;;1.67;1.48;;;22.50;31.80;;;;;;4996157;28;20072;-46
2020/12/08 04:14:10;;;;;;;2.33;1.80;;;22.50;31.80;;;;;;4996179;28;20108;-46
2020/12/08 04:16:38;;;;;;;4.13;1.80;;;22.50;31.80;;;;;;4996097;28;20069;-45
2020/12/08 04:19:07;;;;;;;2.15;1.92;;;22.40;31.80;;;;;;4996863;28;20030;-45
2020/12/08 04:21:34;;;;;;;1.75;1.65;;;22.50;31.80;;;;;;4996259;28;20081;-48
2020/12/08 04:24:13;;;;;;;2.72;1.60;;;22.40;31.80;;;;;;4996649;28;20037;-46
2020/12/08 04:26:45;;;;;;;2.03;1.70;;;22.40;31.70;;;;;;4995790;28;20060;-47
2020/12/08 04:29:14;;;;;;;1.88;1.67;;;22.40;31.60;;;;;;4998644;28;20045;-46
2020/12/08 04:31:45;;;;;;;2.15;1.70;;;22.40;31.70;;;;;;4996658;28;20108;-44
2020/12/08 04:34:11;;;;;;;1.92;1.50;;;22.40;31.70;;;;;;5013962;28;20091;-45
2020/12/08 04:36:38;;;;;;;2.35;1.73;;;22.40;31.70;;;;;;4977822;28;20034;-47
2020/12/08 04:39:05;;;;;;;3.47;1.90;;;22.40;31.70;;;;;;4996885;28;20037;-44
2020/12/08 04:41:31;;;;;;;1.83;1.52;;;22.40;31.80;;;;;;4995869;28;20037;-49
2020/12/08 04:43:59;;;;;;;1.95;1.48;;;22.40;31.80;;;;;;5014108;28;20096;-47
2020/12/08 04:46:26;;;;;;;2.50;1.60;;;22.40;31.70;;;;;;5012919;28;20041;-45
2020/12/08 04:48:53;;;;;;;2.28;1.70;;;22.40;31.70;;;;;;5014148;28;20080;-47
2020/12/08 04:51:21;;;;;;;1.98;1.50;;;22.40;31.80;;;;;;5014054;28;20097;-49
2020/12/08 04:53:51;;;;;;;2.28;1.50;;;22.40;31.80;;;;;;5013958;28;20041;-44
2020/12/08 04:56:19;;;;;;;2.25;1.58;;;22.30;31.70;;;;;;5013601;28;20093;-49
2020/12/08 04:58:46;;;;;;;1.73;1.58;;;22.30;31.70;;;;;;5013073;28;20018;-50
2020/12/08 05:01:29;;;;;;;2.20;1.70;;;22.30;31.70;;;;;;5013721;28;20022;-45
2020/12/08 05:04:03;;;;;;;2.47;1.83;;;22.30;31.70;;;;;;4996922;28;20038;-46
2020/12/08 05:06:30;;;;;;;2.17;1.55;;;22.30;32.30;;;;;;4981554;28;20184;-44
2020/12/08 05:09:08;;;;;;;1.80;1.52;;;22.30;31.60;;;;;;5017346;28;20107;-46
2020/12/08 05:11:36;;;;;;;2.42;1.65;;;22.30;31.60;;;;;;4999450;28;20108;-48
2020/12/08 05:14:05;;;;;;;1.95;1.58;;;22.30;31.60;;;;;;5017424;28;20167;-45
2020/12/08 05:16:33;;;;;;;2.15;1.70;;;22.30;31.60;;;;;;4999905;28;20037;-48
2020/12/08 05:19:10;;;;;;;1.85;1.42;;;22.30;31.60;;;;;;5007019;28;20326;-47
2020/12/08 05:21:47;;;;;;;2.45;1.70;;;22.30;31.70;;;;;;5017297;28;20069;-45
2020/12/08 05:24:27;;;;;;;3.38;1.90;;;22.20;31.60;;;;;;4997931;28;20144;-44
2020/12/08 05:27:03;;;;;;;2.15;1.80;;;22.20;31.60;;;;;;4983116;28;20034;-44
2020/12/08 05:29:31;;;;;;;2.13;1.50;;;22.20;31.60;;;;;;5032359;28;20077;-43
2020/12/08 05:32:18;;;;;;;2.38;1.42;;;22.20;31.60;;;;;;5036955;28;20036;-43
2020/12/08 05:34:51;;;;;;;2.30;1.73;;;22.20;31.70;;;;;;5036221;28;20033;-44
2020/12/08 05:37:19;;;;;;;1.88;1.30;;;22.20;31.60;;;;;;5036490;28;20322;-47
2020/12/08 05:39:47;;;;;;;2.20;1.60;;;22.20;31.70;;;;;;5036383;28;20352;-48
2020/12/08 05:42:19;;;;;;;2.85;1.95;;;22.20;32.30;;;;;;5036626;28;20028;-43
2020/12/08 05:44:51;;;;;;;3.53;1.70;;;22.20;31.70;;;;;;5036280;28;20436;-45
2020/12/08 05:47:21;;;;;;;1.63;1.48;;;22.20;31.70;;;;;;5035910;28;20404;-45
2020/12/08 05:50:01;;;;;;;1.70;1.58;;;22.10;31.60;;;;;;5036791;28;20104;-44
2020/12/08 05:52:33;;;;;;;2.60;1.83;;;22.10;31.60;;;;;;5018828;28;20463;-44
2020/12/08 05:55:17;;;;;;;2.17;1.58;;;22.10;31.60;;;;;;5036691;28;20032;-46
2020/12/08 05:57:45;;;;;;;1.90;1.70;;;22.10;31.60;;;;;;5036184;28;20021;-47
2020/12/08 06:00:26;;;;;;;2.55;1.83;;;22.10;32.30;;;;;;5036559;28;20034;-46
2020/12/08 06:03:11;;;;;;;2.42;1.80;;;22.10;31.60;;;;;;5044293;28;20033;-45
2020/12/08 06:05:40;;;;;;;2.00;1.65;;;22.10;31.70;;;;;;5036211;28;20357;-46
2020/12/08 06:08:17;;;;;;;1.73;1.50;;;22.10;31.80;;;;;;5035759;28;20040;-47
2020/12/08 06:10:45;;;;;;;3.05;1.67;;;22.10;31.70;;;;;;5035880;28;20026;-45
2020/12/08 06:13:26;;;;;;;2.65;1.75;;;22.10;31.70;;;;;;5035791;28;20026;-45
2020/12/08 06:15:53;;;;;;;1.77;1.45;;;22.10;31.70;;;;;;5036171;28;20033;-43
2020/12/08 06:18:29;;;;;;;2.13;1.50;;;22.10;31.70;;;;;;5035858;28;20344;-48
2020/12/08 06:20:57;;;;;;;2.00;1.60;;;22.00;31.70;;;;;;5017995;28;20119;-45
2020/12/08 06:23:25;;;;;;;2.38;1.40;;;22.10;31.70;;;;;;5035981;28;20030;-44
2020/12/08 06:26:03;;;;;;;2.17;1.67;;;22.00;31.60;;;;;;5035895;28;20133;-47
2020/12/08 06:28:30;;;;;;;2.20;1.80;;;22.00;31.60;;;;;;5035484;28;20464;-47
2020/12/08 06:31:05;;;;;;;2.55;1.75;;;22.00;31.60;;;;;;5017959;28;20120;-49
2020/12/08 06:33:49;;;;;;;2.03;1.50;;;22.00;31.60;;;;;;5035360;28;20040;-44
2020/12/08 06:36:19;;;;;;;1.73;1.52;;;22.10;31.70;;;;;;5035530;28;20030;-44
2020/12/08 06:38:56;;;;;;;1.83;1.60;;;22.00;31.70;;;;;;5035617;28;20025;-46
2020/12/08 06:41:35;;;;;;;1.98;1.63;;;22.00;31.70;;;;;;5026906;28;20040;-44
2020/12/08 06:44:04;;;;;;;2.20;1.63;;;22.00;31.70;;;;;;5035321;28;20125;-47
2020/12/08 06:46:31;;;;;;;2.33;1.90;;;22.00;31.70;;;;;;5035288;28;20061;-44
2020/12/08 06:49:03;;;;;;;2.47;1.80;;;22.00;31.70;;;;;;5035412;28;20439;-44
2020/12/08 06:51:30;;;;;;;2.47;1.60;;;22.00;31.70;;;;;;5035053;28;20025;-47
2020/12/08 06:53:58;;;;;;;2.35;1.80;;;22.00;31.70;;;;;;5035111;28;20025;-46
2020/12/08 06:56:32;;;;;;;1.88;1.50;;;22.00;31.70;;;;;;5035863;28;20132;-43
2020/12/08 06:58:59;;;;;;;1.80;1.50;;;22.00;31.70;;;;;;5017445;28;20037;-43
2020/12/08 07:01:26;;;;;;;1.88;1.42;;;21.90;31.70;;;;;;5034571;28;20073;-46
2020/12/08 07:03:54;;;;;;;2.30;1.65;;;21.90;31.70;;;;;;5017713;28;20034;-45
2020/12/08 07:06:21;;;;;;;2.03;1.70;;;22.00;31.80;;;;;;5034686;28;20447;-44
2020/12/08 07:08:50;;;;;;;1.60;1.50;;;22.00;31.80;;;;;;5034965;28;20123;-46
2020/12/08 07:11:18;;;;;;;1.80;1.58;;;21.90;31.80;;;;;;5034809;28;20029;-45
2020/12/08 07:13:58;;;;;;;2.78;1.65;;;21.90;31.80;;;;;;5034756;28;20045;-48
2020/12/08 07:16:27;;;;;;;1.60;1.50;;;21.90;31.70;;;;;;5034445;28;20025;-47
2020/12/08 07:18:55;;;;;;;3.15;1.60;;;21.90;31.80;;;;;;5034726;28;20041;-44
2020/12/08 07:21:22;;;;;;;2.20;1.52;;;21.90;31.70;;;;;;5034890;28;20025;-45
2020/12/08 07:23:53;;;;;;;2.20;1.63;;;21.90;31.80;;;;;;5034245;28;20131;-47
2020/12/08 07:26:24;;;;;;;2.17;1.60;;;21.90;31.80;;;;;;5034114;28;20547;-44
2020/12/08 07:28:55;;;;;;;1.88;1.58;;;21.90;31.70;;;;;;5034288;28;20526;-44
2020/12/08 07:31:31;;;;;;;2.55;1.73;;;21.90;31.70;;;;;;5034466;28;20029;-45
2020/12/08 07:34:01;;;;;;;2.40;1.60;;;21.90;31.70;;;;;;5033911;28;20036;-44
2020/12/08 07:36:30;;;;;;;3.08;1.80;;;21.90;31.70;;;;;;5034282;28;20119;-45
2020/12/08 07:38:59;;;;;;;2.08;1.67;;;21.90;31.70;;;;;;5034266;28;20040;-44
2020/12/08 07:41:28;;;;;;;1.80;1.42;;;21.90;31.70;;;;;;5034577;28;20045;-47
2020/12/08 07:43:57;;;;;;;2.40;1.55;;;21.80;31.70;;;;;;5034439;28;20021;-49
2020/12/08 07:46:29;;;;;;;1.80;1.50;;;21.90;31.80;;;;;;5033723;28;20025;-45
2020/12/08 07:49:10;;;;;;;2.58;2.00;;;21.80;31.70;;;;;;5020960;28;20026;-44
2020/12/08 07:51:38;;;;;;;2.13;1.70;;;21.80;31.80;;;;;;5030728;28;20108;-44
2020/12/08 07:54:06;;;;;;;1.70;1.48;;;21.80;31.90;;;;;;5033415;28;20036;-45
2020/12/08 07:56:35;;;;;;;1.92;1.73;;;21.80;31.80;;;;;;5016563;28;20404;-44
2020/12/08 07:59:03;;;;;;;2.22;1.90;;;21.80;31.80;;;;;;5033848;28;20029;-47
2020/12/08 08:01:46;;;;;;;1.73;1.55;;;21.80;31.90;;;;;;5034682;28;20101;-44
2020/12/08 08:04:14;;;;;;;1.73;1.50;;;21.80;31.90;;;;;;5016119;28;20037;-44
2020/12/08 08:06:44;;;;;;;1.73;1.63;;;21.80;31.90;;;;;;5033849;28;20334;-46
2020/12/08 08:09:10;;;;;;;1.42;1.30;;;21.70;31.90;;;;;;5033756;28;20318;-45
2020/12/08 08:11:36;;;;;;;3.20;1.30;;;21.80;32.20;;;;;;5033623;28;20030;-57
2020/12/08 08:14:04;;;;;;;2.38;1.33;;;21.70;32.50;;;;;;5032245;28;20029;-55
2020/12/08 08:16:30;;;;;;;2.20;1.33;;;21.80;32.90;;;;;;5032494;28;20032;-47
2020/12/08 08:18:56;;;;;;;2.22;1.40;;;21.90;33.10;;;;;;5030767;28;20044;-54
2020/12/08 08:21:22;;;;;;;2.85;1.00;;;22.00;33.10;;;;;;5030197;28;20041;-53
2020/12/08 08:23:49;;;;;;;2.55;1.58;;;22.30;33.20;;;;;;5031859;28;20094;-49
2020/12/08 08:26:15;;;;;;;2.72;1.20;;;22.40;33.10;;;;;;5014336;28;20029;-52
2020/12/08 08:28:41;;;;;;;2.95;1.20;;;22.50;33.00;;;;;;5031895;28;20362;-49
2020/12/08 08:31:07;;;;;;;2.63;1.17;;;22.70;32.90;;;;;;5032064;28;20040;-51
2020/12/08 08:33:33;;;;;;;1.30;1.02;;;22.80;32.60;;;;;;5032210;28;20052;-49
2020/12/08 08:35:59;;;;;;;1.85;1.27;;;23.00;32.50;;;;;;5030080;28;20021;-50
2020/12/08 08:38:27;;;;;;;2.47;1.02;;;23.20;32.30;;;;;;5030588;28;20061;-47
2020/12/08 08:40:57;;;;;;;1.70;1.30;;;23.30;32.10;;;;;;5029825;28;20036;-49
2020/12/08 08:43:27;;;;;;;1.27;1.17;;;23.50;31.90;;;;;;5031771;28;20439;-48
2020/12/08 08:45:55;;;;;;;2.45;1.50;;;23.50;31.70;;;;;;5031718;28;20049;-47
2020/12/08 08:48:21;;;;;;;1.38;1.10;;;23.70;31.60;;;;;;5035928;28;20025;-49
2020/12/08 08:50:48;;;;;;;1.50;1.23;;;23.80;31.50;;;;;;5032602;28;20026;-47
2020/12/08 08:53:14;;;;;;;1.60;1.00;;;23.90;31.40;;;;;;5032667;28;20034;-49
2020/12/08 08:55:40;;;;;;;1.27;1.17;;;24.00;31.30;;;;;;5032418;28;20043;-50
2020/12/08 08:58:06;;;;;;;1.88;1.10;;;24.10;31.20;;;;;;5032284;28;20420;-46
2020/12/08 09:00:31;;;;;;;1.48;1.20;;;24.20;31.10;;;;;;5031948;28;20116;-49
2020/12/08 09:02:58;;;;;;;1.98;1.30;;;24.30;31.00;;;;;;5032880;28;20445;-48
2020/12/08 09:05:25;;;;;;;1.35;1.10;;;24.40;30.90;;;;;;5032093;28;20076;-45
2020/12/08 09:07:51;;;;;;;1.30;1.10;;;24.40;30.80;;;;;;5032551;28;20095;-52
2020/12/08 09:10:17;;;;;;;1.98;1.20;;;24.50;30.70;;;;;;5031397;28;20383;-49
2020/12/08 09:12:43;;;;;;;1.55;1.00;;;24.60;30.80;;;;;;5030779;28;20064;-47
2020/12/08 09:15:09;;;;;;;1.17;1.00;;;24.60;30.40;;;;;;5033794;28;20025;-46
2020/12/08 09:17:35;;;;;;;1.45;0.95;;;24.70;30.30;;;;;;5033360;28;20056;-48
2020/12/08 09:20:02;;;;;;;2.17;1.10;;;24.80;30.20;;;;;;5030516;28;20034;-48
2020/12/08 09:22:28;;;;;;;1.40;1.15;;;24.80;30.00;;;;;;5031141;28;20033;-47
2020/12/08 09:24:59;;;;;;;1.00;0.90;;;24.90;30.00;;;;;;5031376;28;20038;-46
2020/12/08 09:27:27;;;;;;;1.52;1.35;;;25.00;29.90;;;;;;5030032;28;20045;-48
2020/12/08 09:29:52;;;;;;;1.80;1.20;;;25.00;29.70;;;;;;5031160;28;20045;-48
2020/12/08 09:32:19;;;;;;;2.55;1.20;;;25.10;30.10;;;;;;5032418;28;20053;-50
2020/12/08 09:34:45;;;;;;;4.13;1.08;;;25.10;29.50;;;;;;5031606;28;20341;-46
2020/12/08 09:37:10;;;;;;;1.50;1.20;;;25.10;29.50;;;;;;5030814;28;20025;-50
2020/12/08 09:39:37;;;;;;;1.50;1.17;;;25.10;29.50;;;;;;5030234;28;20048;-47
2020/12/08 09:42:04;;;;;;;2.28;1.25;;;25.10;29.40;;;;;;5030582;28;20370;-48
2020/12/08 09:44:30;;;;;;;1.33;1.13;;;25.20;29.40;;;;;;5029657;28;20033;-44
2020/12/08 09:46:56;;;;;;;1.77;1.50;;;25.20;29.50;;;;;;5027617;28;20344;-48
2020/12/08 09:49:21;;;;;;;1.40;1.30;;;25.20;29.40;;;;;;5029612;28;20178;-50
2020/12/08 09:51:47;;;;;;;1.30;1.20;;;25.20;29.40;;;;;;5039819;28;20017;-51
2020/12/08 09:54:13;;;;;;;1.67;1.38;;;25.20;29.40;;;;;;5035280;28;20044;-45
2020/12/08 09:56:39;;;;;;;1.90;1.30;;;25.20;29.40;;;;;;5033509;28;20025;-49
2020/12/08 09:59:06;;;;;;;1.67;1.30;;;25.20;29.40;;;;;;5036679;28;20036;-46
2020/12/08 10:01:33;;;;;;;1.40;1.20;;;25.20;29.80;;;;;;5035580;28;20029;-46
2020/12/08 10:04:00;;;;;;;1.67;1.58;;;25.20;29.30;;;;;;5031297;28;20055;-50
2020/12/08 10:06:26;;;;;;;1.52;1.30;;;25.20;29.30;;;;;;5031579;28;20058;-48
2020/12/08 10:08:54;;;;;;;2.33;1.30;;;25.20;29.30;;;;;;5034337;28;20025;-52
2020/12/08 10:11:20;;;;;;;1.23;1.02;;;25.20;29.40;;;;;;5035571;28;20118;-54
2020/12/08 10:13:47;;;;;;;2.40;1.50;;;25.30;29.50;;;;;;5037540;28;20780;-52
2020/12/08 10:16:21;;;;;;;1.73;1.50;;;25.30;29.60;;;;;;5034931;28;20413;-52
2020/12/08 10:18:48;;;;;;;1.25;1.15;;;25.20;29.60;;;;;;5036858;28;20029;-52
2020/12/08 10:21:18;;;;;;;2.65;1.70;;;25.10;29.70;;;;;;5032634;28;20021;-49
2020/12/08 10:23:43;;;;;;;3.20;1.50;;;25.00;29.70;;;;;;5034960;28;20037;-49
2020/12/08 10:26:10;;;;;;;2.40;1.40;;;25.00;29.70;;;;;;5033806;28;20057;-44
2020/12/08 10:28:37;;;;;;;2.20;1.50;;;25.00;29.80;;;;;;5029027;28;20461;-43
2020/12/08 10:31:03;;;;;;;1.85;1.25;;;25.00;29.90;;;;;;5034005;28;20023;-46
2020/12/08 10:33:29;;;;;;;3.47;1.35;;;25.00;30.40;;;;;;5035054;28;20356;-44
2020/12/08 10:35:55;;;;;;;2.03;1.80;;;25.00;29.90;;;;;;5034181;28;20035;-49
2020/12/08 10:38:21;;;;;;;1.60;1.40;;;25.00;29.80;;;;;;5037010;28;20025;-48
2020/12/08 10:40:47;;;;;;;2.35;1.40;;;25.00;29.80;;;;;;5036513;28;20036;-53
2020/12/08 10:43:12;;;;;;;2.42;1.20;;;25.00;29.80;;;;;;5038079;28;20024;-48
2020/12/08 10:45:38;;;;;;;1.77;1.42;;;24.90;29.80;;;;;;5032076;28;20056;-50
2020/12/08 10:48:04;;;;;;;1.77;1.42;;;24.80;29.80;;;;;;5032639;28;20349;-50
2020/12/08 10:50:29;;;;;;;2.00;1.40;;;24.70;29.90;;;;;;5030814;28;20032;-52
2020/12/08 10:52:55;;;;;;;4.00;1.55;;;24.60;29.90;;;;;;5034430;28;20025;-53
2020/12/08 10:55:23;;;;;;;1.17;1.00;;;24.60;30.00;;;;;;5030649;28;20026;-49
2020/12/08 10:57:48;;;;;;;1.80;1.33;;;24.60;30.00;;;;;;5035825;28;20059;-51
2020/12/08 11:00:14;;;;;;;1.88;1.40;;;24.50;30.00;;;;;;5032258;28;20030;-49
2020/12/08 11:02:40;;;;;;;1.50;1.40;;;24.50;30.10;;;;;;5032882;28;20459;-51
2020/12/08 11:05:07;;;;;;;2.47;1.50;;;24.40;30.10;;;;;;5015417;28;20081;-52
2020/12/08 11:07:34;;;;;;;3.72;1.25;;;24.40;30.20;;;;;;5038083;28;20127;-46
2020/12/08 11:10:00;;;;;;;4.20;1.20;;;24.40;30.20;;;;;;5032888;28;20034;-49
2020/12/08 11:12:26;;;;;;;1.52;1.25;;;24.30;30.20;;;;;;5034183;28;20456;-47
2020/12/08 11:14:52;;;;;;;1.23;1.10;;;24.30;30.20;;;;;;5030700;28;20077;-47
2020/12/08 11:17:18;;;;;;;2.10;1.48;;;24.30;30.30;;;;;;5033146;28;20026;-49
2020/12/08 11:19:43;;;;;;;1.77;1.48;;;24.30;30.30;;;;;;5030806;28;20044;-47
2020/12/08 11:22:10;;;;;;;1.60;1.17;;;24.20;30.30;;;;;;5032395;28;20035;-51
2020/12/08 11:24:36;;;;;;;1.67;1.50;;;24.20;30.30;;;;;;5032081;28;20348;-48
2020/12/08 11:27:02;;;;;;;1.98;1.48;;;24.20;30.30;;;;;;5032826;28;20033;-49
2020/12/08 11:29:28;;;;;;;2.25;1.23;;;24.20;30.40;;;;;;5031915;28;20053;-50
2020/12/08 11:31:55;;;;;;;1.48;1.20;;;24.10;30.40;;;;;;5034942;28;20112;-48
2020/12/08 11:34:20;;;;;;;1.30;1.13;;;24.10;30.40;;;;;;5038706;28;20026;-59
2020/12/08 11:36:46;;;;;;;1.35;1.17;;;24.10;30.40;;;;;;5032901;28;20068;-51
2020/12/08 11:39:12;;;;;;;1.40;1.27;;;24.10;30.40;;;;;;5033543;28;20080;-48
2020/12/08 11:41:42;;;;;;;1.67;1.20;;;24.10;30.40;;;;;;5028833;28;20490;-44
2020/12/08 11:44:11;;;;;;;1.67;1.20;;;24.10;30.40;;;;;;5024423;28;20048;-50
2020/12/08 11:46:38;;;;;;;3.08;1.35;;;24.00;30.40;;;;;;5032121;28;20037;-49
2020/12/08 11:49:04;;;;;;;2.95;1.73;;;24.00;30.40;;;;;;5030575;28;20025;-48
2020/12/08 11:51:32;;;;;;;2.10;1.90;;;24.00;30.40;;;;;;5013990;28;20033;-46
2020/12/08 11:53:58;;;;;;;3.35;2.80;;;24.00;30.40;;;;;;5028906;28;20030;-46
2020/12/08 11:56:25;;;;;;;4.07;3.00;;;24.00;30.40;;;;;;5035045;28;20072;-47
2020/12/08 11:58:52;;;;;;;4.93;4.45;;;23.90;30.00;;;;;;5031763;28;20022;-55
2020/12/08 12:01:17;;;;;;;3.30;2.83;;;23.80;28.70;;;;;;5032180;28;20448;-53
2020/12/08 12:03:43;;;;;;;3.20;2.90;;;23.70;29.30;;;;;;5030939;28;20039;-54
2020/12/08 12:06:12;;;;;;;3.03;2.72;;;23.60;29.70;;;;;;5013933;28;20108;-53
2020/12/08 12:08:40;;;;;;;5.68;2.65;;;23.60;30.00;;;;;;5033932;28;20107;-51
2020/12/08 12:11:09;;;;;;;5.35;2.90;;;23.60;30.10;;;;;;5030581;28;20065;-56
2020/12/08 12:13:35;;;;;;;4.28;3.38;;;23.70;30.40;;;;;;5030546;28;20037;-51
2020/12/08 12:16:01;;;;;;;3.00;2.70;;;23.70;30.40;;;;;;5031788;28;20072;-56
2020/12/08 12:18:27;;;;;;;2.97;2.65;;;23.70;30.40;;;;;;5029620;28;20067;-51
2020/12/08 12:20:52;;;;;;;3.28;2.70;;;23.80;30.60;;;;;;5031687;28;20021;-50
2020/12/08 12:23:18;;;;;;;4.15;2.80;;;23.80;30.70;;;;;;5030174;28;20068;-56
2020/12/08 12:25:45;;;;;;;4.10;2.50;;;23.80;30.90;;;;;;5032212;28;20045;-56
2020/12/08 12:28:10;;;;;;;3.53;2.63;;;23.90;31.00;;;;;;5033032;28;20475;-51
2020/12/08 12:30:36;;;;;;;2.83;2.60;;;23.90;31.10;;;;;;5032771;28;20041;-54
2020/12/08 12:33:02;;;;;;;3.13;2.83;;;23.90;31.30;;;;;;5033956;28;20401;-55
2020/12/08 12:35:28;;;;;;;3.60;2.50;;;24.00;31.50;;;;;;5031438;28;20038;-51
2020/12/08 12:37:56;;;;;;;4.45;2.30;;;24.00;31.60;;;;;;5031928;28;20476;-53
2020/12/08 12:40:22;;;;;;;2.97;2.58;;;24.00;31.70;;;;;;5030144;28;20033;-50
2020/12/08 12:42:48;;;;;;;4.60;2.75;;;24.10;31.80;;;;;;5030230;28;20348;-51
2020/12/08 12:45:14;;;;;;;5.35;2.20;;;24.10;31.70;;;;;;5036361;28;20045;-48
2020/12/08 12:47:40;;;;;;;5.32;2.50;;;24.10;31.80;;;;;;5036086;28;20029;-55
2020/12/08 12:50:06;;;;;;;3.13;2.17;;;24.10;31.70;;;;;;5036000;28;20439;-56
2020/12/08 12:52:32;;;;;;;3.35;2.20;;;24.20;31.80;;;;;;5032409;28;20022;-49
2020/12/08 12:54:57;;;;;;;3.28;2.05;;;24.20;31.90;;;;;;5034487;28;20033;-53